sensor_id;sensor_type;location;lat;lon;timestamp;temperature;humidity
1411;DHT22;700;51.906;8.404;2023-09-12T00:01:07;24.60;99.90
1411;DHT22;700;51.906;8.404;2023-09-12T00:06:08;24.70;99.90
1411;DHT22;700;51.906;8.404;2023-09-12T00:11:10;24.70;99.90
1411;DHT22;700;51.906;8.404;2023-09-12T00:16:11;24.80;99.90
1411;DHT22;700;51.906;8.404;2023-09-12T00:21:12;24.70;99.90
1411;DHT22;700;51.906;8.404;2023-09-12T00:26:15;24.70;99.90
1411;DHT22;700;51.906;8.404;2023-09-12T00:31:18;24.80;99.90
1411;DHT22;700;51.906;8.404;2023-09-12T00:36:20;24.70;99.90
1411;DHT22;700;51.906;8.404;2023-09-12T00:41:23;24.80;99.90
1411;DHT22;700;51.906;8.404;2023-09-12T00:46:27;24.80;99.90
1411;DHT22;700;51.906;8.404;2023-09-12T00:51:31;24.70;99.90
1411;DHT22;700;51.906;8.404;2023-09-12T00:56:32;24.70;99.90
1411;DHT22;700;51.906;8.404;2023-09-12T01:01:35;24.90;99.90
1411;DHT22;700;51.906;8.404;2023-09-12T01:06:38;24.80;99.90
1411;DHT22;700;51.906;8.404;2023-09-12T01:11:41;24.70;99.90
1411;DHT22;700;51.906;8.404;2023-09-12T01:16:42;24.40;99.90
1411;DHT22;700;51.906;8.404;2023-09-12T01:27:25;24.20;99.90
1411;DHT22;700;51.906;8.404;2023-09-12T01:32:34;24.00;99.90
1411;DHT22;700;51.906;8.404;2023-09-12T01:37:37;23.90;99.90
1411;DHT22;700;51.906;8.404;2023-09-12T01:42:42;23.90;99.90
1411;DHT22;700;51.906;8.404;2023-09-12T01:47:50;23.90;99.90
1411;DHT22;700;51.906;8.404;2023-09-12T01:52:51;24.00;99.90
1411;DHT22;700;51.906;8.404;2023-09-12T01:57:52;23.80;99.90
1411;DHT22;700;51.906;8.404;2023-09-12T02:02:53;23.90;99.90
1411;DHT22;700;51.906;8.404;2023-09-12T02:07:56;23.90;99.90
1411;DHT22;700;51.906;8.404;2023-09-12T02:12:56;23.90;99.90
1411;DHT22;700;51.906;8.404;2023-09-12T02:17:57;23.90;99.90
1411;DHT22;700;51.906;8.404;2023-09-12T02:23:00;23.80;99.90
1411;DHT22;700;51.906;8.404;2023-09-12T02:28:03;23.60;99.90
1411;DHT22;700;51.906;8.404;2023-09-12T02:33:04;23.40;99.90
1411;DHT22;700;51.906;8.404;2023-09-12T02:38:04;23.10;99.90
1411;DHT22;700;51.906;8.404;2023-09-12T02:43:07;23.20;99.90
1411;DHT22;700;51.906;8.404;2023-09-12T02:48:08;23.30;99.90
1411;DHT22;700;51.906;8.404;2023-09-12T02:53:13;23.30;99.90
1411;DHT22;700;51.906;8.404;2023-09-12T02:58:16;23.30;99.90
1411;DHT22;700;51.906;8.404;2023-09-12T03:03:21;23.40;99.90
1411;DHT22;700;51.906;8.404;2023-09-12T03:08:22;23.30;99.90
1411;DHT22;700;51.906;8.404;2023-09-12T03:13:25;23.40;99.90
1411;DHT22;700;51.906;8.404;2023-09-12T03:18:31;23.20;99.90
1411;DHT22;700;51.906;8.404;2023-09-12T03:23:31;23.50;99.90
1411;DHT22;700;51.906;8.404;2023-09-12T03:28:34;23.50;99.90
1411;DHT22;700;51.906;8.404;2023-09-12T03:33:37;23.30;99.90
1411;DHT22;700;51.906;8.404;2023-09-12T03:38:38;23.30;99.90
1411;DHT22;700;51.906;8.404;2023-09-12T03:43:41;23.30;99.90
1411;DHT22;700;51.906;8.404;2023-09-12T03:48:44;23.50;99.90
1411;DHT22;700;51.906;8.404;2023-09-12T03:53:46;23.60;99.90
1411;DHT22;700;51.906;8.404;2023-09-12T03:58:48;23.60;99.90
1411;DHT22;700;51.906;8.404;2023-09-12T04:03:48;23.40;99.90
1411;DHT22;700;51.906;8.404;2023-09-12T04:08:49;23.60;99.90
1411;DHT22;700;51.906;8.404;2023-09-12T04:13:50;23.70;99.90
1411;DHT22;700;51.906;8.404;2023-09-12T04:18:53;23.60;99.90
1411;DHT22;700;51.906;8.404;2023-09-12T04:23:53;23.70;99.90
1411;DHT22;700;51.906;8.404;2023-09-12T04:28:56;23.50;99.90
1411;DHT22;700;51.906;8.404;2023-09-12T04:33:57;23.60;99.90
1411;DHT22;700;51.906;8.404;2023-09-12T04:38:57;23.60;99.90
1411;DHT22;700;51.906;8.404;2023-09-12T04:43:58;23.70;99.90
1411;DHT22;700;51.906;8.404;2023-09-12T04:49:00;23.80;99.90
1411;DHT22;700;51.906;8.404;2023-09-12T04:54:00;23.70;99.90
1411;DHT22;700;51.906;8.404;2023-09-12T04:59:01;23.60;99.90
1411;DHT22;700;51.906;8.404;2023-09-12T05:04:02;23.50;99.90
1411;DHT22;700;51.906;8.404;2023-09-12T05:09:03;23.30;99.90
1411;DHT22;700;51.906;8.404;2023-09-12T05:14:05;23.10;99.90
1411;DHT22;700;51.906;8.404;2023-09-12T05:19:06;22.50;99.90
1411;DHT22;700;51.906;8.404;2023-09-12T05:24:07;22.50;99.90
1411;DHT22;700;51.906;8.404;2023-09-12T05:29:07;22.40;99.90
1411;DHT22;700;51.906;8.404;2023-09-12T05:34:08;22.40;99.90
1411;DHT22;700;51.906;8.404;2023-09-12T05:39:11;22.10;99.90
1411;DHT22;700;51.906;8.404;2023-09-12T05:44:14;22.10;99.90
1411;DHT22;700;51.906;8.404;2023-09-12T05:49:20;22.30;99.90
1411;DHT22;700;51.906;8.404;2023-09-12T05:54:20;22.10;99.90
1411;DHT22;700;51.906;8.404;2023-09-12T05:59:21;22.20;99.90
1411;DHT22;700;51.906;8.404;2023-09-12T06:04:22;22.00;99.90
1411;DHT22;700;51.906;8.404;2023-09-12T06:09:22;21.60;99.90
1411;DHT22;700;51.906;8.404;2023-09-12T06:14:23;21.60;99.90
1411;DHT22;700;51.906;8.404;2023-09-12T06:19:24;21.70;99.90
1411;DHT22;700;51.906;8.404;2023-09-12T06:24:25;21.90;99.90
1411;DHT22;700;51.906;8.404;2023-09-12T06:29:28;22.10;99.90
1411;DHT22;700;51.906;8.404;2023-09-12T06:34:29;22.20;99.90
1411;DHT22;700;51.906;8.404;2023-09-12T06:39:32;22.40;99.90
1411;DHT22;700;51.906;8.404;2023-09-12T06:44:32;22.30;99.90
1411;DHT22;700;51.906;8.404;2023-09-12T06:49:35;22.20;99.90
1411;DHT22;700;51.906;8.404;2023-09-12T06:54:36;21.90;99.90
1411;DHT22;700;51.906;8.404;2023-09-12T06:59:37;21.80;99.90
1411;DHT22;700;51.906;8.404;2023-09-12T07:04:40;21.90;99.90
1411;DHT22;700;51.906;8.404;2023-09-12T07:09:40;22.10;99.90
1411;DHT22;700;51.906;8.404;2023-09-12T07:14:43;22.20;99.90
1411;DHT22;700;51.906;8.404;2023-09-12T07:19:44;22.20;99.90
1411;DHT22;700;51.906;8.404;2023-09-12T07:24:45;22.20;99.90
1411;DHT22;700;51.906;8.404;2023-09-12T07:29:48;22.30;99.90
1411;DHT22;700;51.906;8.404;2023-09-12T07:34:48;22.30;99.90
1411;DHT22;700;51.906;8.404;2023-09-12T07:39:49;22.50;99.90
1411;DHT22;700;51.906;8.404;2023-09-12T07:44:50;22.20;99.90
1411;DHT22;700;51.906;8.404;2023-09-12T07:49:54;22.30;99.90
1411;DHT22;700;51.906;8.404;2023-09-12T07:55:04;22.30;99.90
1411;DHT22;700;51.906;8.404;2023-09-12T08:00:05;22.20;99.90
1411;DHT22;700;51.906;8.404;2023-09-12T08:05:10;22.10;99.90
1411;DHT22;700;51.906;8.404;2023-09-12T08:10:13;22.20;99.90
1411;DHT22;700;51.906;8.404;2023-09-12T08:15:16;22.10;99.90
1411;DHT22;700;51.906;8.404;2023-09-12T08:20:19;21.80;99.90
1411;DHT22;700;51.906;8.404;2023-09-12T08:25:20;21.70;99.90
1411;DHT22;700;51.906;8.404;2023-09-12T08:30:27;21.80;99.90
1411;DHT22;700;51.906;8.404;2023-09-12T08:35:33;22.00;99.90
1411;DHT22;700;51.906;8.404;2023-09-12T08:40:34;21.90;99.90
1411;DHT22;700;51.906;8.404;2023-09-12T08:45:36;22.00;99.90
1411;DHT22;700;51.906;8.404;2023-09-12T08:50:36;22.00;99.90
1411;DHT22;700;51.906;8.404;2023-09-12T08:55:37;21.80;99.90
1411;DHT22;700;51.906;8.404;2023-09-12T09:00:42;21.80;99.90
1411;DHT22;700;51.906;8.404;2023-09-12T09:05:43;22.00;99.90
1411;DHT22;700;51.906;8.404;2023-09-12T09:10:59;22.20;99.90
1411;DHT22;700;51.906;8.404;2023-09-12T09:16:16;21.70;99.90
1411;DHT22;700;51.906;8.404;2023-09-12T09:21:18;21.80;99.90
1411;DHT22;700;51.906;8.404;2023-09-12T09:26:20;21.90;99.90
1411;DHT22;700;51.906;8.404;2023-09-12T09:31:22;21.80;99.90
1411;DHT22;700;51.906;8.404;2023-09-12T09:36:30;21.90;99.90
1411;DHT22;700;51.906;8.404;2023-09-12T09:41:32;22.10;99.90
1411;DHT22;700;51.906;8.404;2023-09-12T09:46:34;22.30;99.90
1411;DHT22;700;51.906;8.404;2023-09-12T09:51:41;22.20;99.90
1411;DHT22;700;51.906;8.404;2023-09-12T09:56:50;22.00;99.90
1411;DHT22;700;51.906;8.404;2023-09-12T10:01:55;22.20;99.90
1411;DHT22;700;51.906;8.404;2023-09-12T10:06:59;22.00;99.90
1411;DHT22;700;51.906;8.404;2023-09-12T10:12:00;22.00;99.90
1411;DHT22;700;51.906;8.404;2023-09-12T10:17:03;22.10;99.90
1411;DHT22;700;51.906;8.404;2023-09-12T10:22:39;22.10;99.90
1411;DHT22;700;51.906;8.404;2023-09-12T10:27:44;21.60;99.90
1411;DHT22;700;51.906;8.404;2023-09-12T10:32:45;21.50;99.90
1411;DHT22;700;51.906;8.404;2023-09-12T10:37:49;21.60;99.90
1411;DHT22;700;51.906;8.404;2023-09-12T10:42:51;21.70;99.90
1411;DHT22;700;51.906;8.404;2023-09-12T10:47:52;21.70;99.90
1411;DHT22;700;51.906;8.404;2023-09-12T10:53:16;22.00;99.90
1411;DHT22;700;51.906;8.404;2023-09-12T10:58:18;22.10;99.90
1411;DHT22;700;51.906;8.404;2023-09-12T11:08:27;22.60;99.90
1411;DHT22;700;51.906;8.404;2023-09-12T11:13:38;22.90;99.90
1411;DHT22;700;51.906;8.404;2023-09-12T11:19:19;23.30;99.90
1411;DHT22;700;51.906;8.404;2023-09-12T11:24:20;23.70;99.90
1411;DHT22;700;51.906;8.404;2023-09-12T11:29:21;25.30;99.90
1411;DHT22;700;51.906;8.404;2023-09-12T11:34:26;26.10;99.90
1411;DHT22;700;51.906;8.404;2023-09-12T11:39:34;26.70;99.90
1411;DHT22;700;51.906;8.404;2023-09-12T11:44:35;27.50;99.90
1411;DHT22;700;51.906;8.404;2023-09-12T11:49:37;27.70;99.90
1411;DHT22;700;51.906;8.404;2023-09-12T11:54:39;28.00;99.90
1411;DHT22;700;51.906;8.404;2023-09-12T11:59:44;28.50;99.90
1411;DHT22;700;51.906;8.404;2023-09-12T12:04:47;29.00;99.90
1411;DHT22;700;51.906;8.404;2023-09-12T12:09:48;29.20;99.90
1411;DHT22;700;51.906;8.404;2023-09-12T12:14:48;29.20;99.90
1411;DHT22;700;51.906;8.404;2023-09-12T12:19:51;29.40;99.90
1411;DHT22;700;51.906;8.404;2023-09-12T12:24:55;29.20;99.90
1411;DHT22;700;51.906;8.404;2023-09-12T12:30:11;29.20;99.90
1411;DHT22;700;51.906;8.404;2023-09-12T12:35:21;30.00;99.90
1411;DHT22;700;51.906;8.404;2023-09-12T12:40:25;30.60;99.90
1411;DHT22;700;51.906;8.404;2023-09-12T12:45:28;31.20;99.90
1411;DHT22;700;51.906;8.404;2023-09-12T12:50:28;32.10;99.90
1411;DHT22;700;51.906;8.404;2023-09-12T12:55:29;34.00;99.90
1411;DHT22;700;51.906;8.404;2023-09-12T13:00:30;34.70;99.90
1411;DHT22;700;51.906;8.404;2023-09-12T13:05:33;35.10;99.50
1411;DHT22;700;51.906;8.404;2023-09-12T13:10:36;35.50;98.50
1411;DHT22;700;51.906;8.404;2023-09-12T13:15:39;38.30;93.00
1411;DHT22;700;51.906;8.404;2023-09-12T13:20:43;38.70;85.50
1411;DHT22;700;51.906;8.404;2023-09-12T13:25:46;37.10;86.80
1411;DHT22;700;51.906;8.404;2023-09-12T13:30:46;36.80;82.60
1411;DHT22;700;51.906;8.404;2023-09-12T13:35:52;38.10;81.70
1411;DHT22;700;51.906;8.404;2023-09-12T13:40:52;39.80;77.00
1411;DHT22;700;51.906;8.404;2023-09-12T13:45:53;41.00;71.00
1411;DHT22;700;51.906;8.404;2023-09-12T13:50:54;41.10;68.70
1411;DHT22;700;51.906;8.404;2023-09-12T13:55:57;40.10;65.60
1411;DHT22;700;51.906;8.404;2023-09-12T14:00:58;40.80;65.50
1411;DHT22;700;51.906;8.404;2023-09-12T14:06:01;40.60;66.20
1411;DHT22;700;51.906;8.404;2023-09-12T14:11:02;38.80;67.00
1411;DHT22;700;51.906;8.404;2023-09-12T14:16:03;37.70;71.50
1411;DHT22;700;51.906;8.404;2023-09-12T14:21:06;36.30;76.00
1411;DHT22;700;51.906;8.404;2023-09-12T14:26:06;35.00;81.40
1411;DHT22;700;51.906;8.404;2023-09-12T14:31:09;34.00;84.80
1411;DHT22;700;51.906;8.404;2023-09-12T14:36:14;33.20;90.00
1411;DHT22;700;51.906;8.404;2023-09-12T14:41:19;32.60;92.70
1411;DHT22;700;51.906;8.404;2023-09-12T14:46:20;32.10;95.20
1411;DHT22;700;51.906;8.404;2023-09-12T14:51:21;31.70;96.50
1411;DHT22;700;51.906;8.404;2023-09-12T14:56:24;31.30;97.10
1411;DHT22;700;51.906;8.404;2023-09-12T15:01:24;30.80;99.90
1411;DHT22;700;51.906;8.404;2023-09-12T15:06:25;30.50;99.90
1411;DHT22;700;51.906;8.404;2023-09-12T15:11:25;30.20;99.90
1411;DHT22;700;51.906;8.404;2023-09-12T15:16:26;30.10;99.90
1411;DHT22;700;51.906;8.404;2023-09-12T15:21:29;30.20;99.90
1411;DHT22;700;51.906;8.404;2023-09-12T15:26:30;30.20;99.90
1411;DHT22;700;51.906;8.404;2023-09-12T15:31:30;30.20;99.90
1411;DHT22;700;51.906;8.404;2023-09-12T15:36:39;30.20;99.90
1411;DHT22;700;51.906;8.404;2023-09-12T15:41:41;30.00;99.90
1411;DHT22;700;51.906;8.404;2023-09-12T15:46:44;29.90;99.90
1411;DHT22;700;51.906;8.404;2023-09-12T15:51:45;29.70;99.90
1411;DHT22;700;51.906;8.404;2023-09-12T15:56:46;29.60;99.90
1411;DHT22;700;51.906;8.404;2023-09-12T16:01:49;29.40;99.90
1411;DHT22;700;51.906;8.404;2023-09-12T16:06:49;29.40;99.90
1411;DHT22;700;51.906;8.404;2023-09-12T16:11:52;29.20;99.90
1411;DHT22;700;51.906;8.404;2023-09-12T16:16:55;29.10;99.90
1411;DHT22;700;51.906;8.404;2023-09-12T16:21:56;29.00;99.90
1411;DHT22;700;51.906;8.404;2023-09-12T16:26:57;28.90;99.90
1411;DHT22;700;51.906;8.404;2023-09-12T16:32:01;28.60;99.90
1411;DHT22;700;51.906;8.404;2023-09-12T16:37:05;28.30;99.90
1411;DHT22;700;51.906;8.404;2023-09-12T16:42:06;27.80;99.90
1411;DHT22;700;51.906;8.404;2023-09-12T16:47:06;27.50;99.90
1411;DHT22;700;51.906;8.404;2023-09-12T16:52:10;27.50;99.90
1411;DHT22;700;51.906;8.404;2023-09-12T16:57:16;27.30;99.90
1411;DHT22;700;51.906;8.404;2023-09-12T17:02:16;27.30;99.90
1411;DHT22;700;51.906;8.404;2023-09-12T17:07:17;27.10;99.90
1411;DHT22;700;51.906;8.404;2023-09-12T17:12:19;27.00;99.90
1411;DHT22;700;51.906;8.404;2023-09-12T17:17:20;27.00;99.90
1411;DHT22;700;51.906;8.404;2023-09-12T17:22:20;26.80;99.90
1411;DHT22;700;51.906;8.404;2023-09-12T17:27:28;26.70;99.90
1411;DHT22;700;51.906;8.404;2023-09-12T17:32:30;26.40;99.90
1411;DHT22;700;51.906;8.404;2023-09-12T17:37:31;26.20;99.90
1411;DHT22;700;51.906;8.404;2023-09-12T17:42:32;26.10;99.90
1411;DHT22;700;51.906;8.404;2023-09-12T17:47:37;25.90;99.90
1411;DHT22;700;51.906;8.404;2023-09-12T17:52:40;25.80;99.90
1411;DHT22;700;51.906;8.404;2023-09-12T17:57:40;25.60;99.90
1411;DHT22;700;51.906;8.404;2023-09-12T18:02:41;25.30;99.90
1411;DHT22;700;51.906;8.404;2023-09-12T18:07:42;25.20;99.90
1411;DHT22;700;51.906;8.404;2023-09-12T18:12:42;25.10;99.90
1411;DHT22;700;51.906;8.404;2023-09-12T18:17:46;25.00;99.90
1411;DHT22;700;51.906;8.404;2023-09-12T18:22:46;24.80;99.90
1411;DHT22;700;51.906;8.404;2023-09-12T18:27:47;24.70;99.90
1411;DHT22;700;51.906;8.404;2023-09-12T18:32:50;24.60;99.90
1411;DHT22;700;51.906;8.404;2023-09-12T18:37:54;24.50;99.90
1411;DHT22;700;51.906;8.404;2023-09-12T18:42:57;24.60;99.90
1411;DHT22;700;51.906;8.404;2023-09-12T18:47:58;24.50;99.90
1411;DHT22;700;51.906;8.404;2023-09-12T18:52:58;24.50;99.90
1411;DHT22;700;51.906;8.404;2023-09-12T18:58:01;24.60;99.90
1411;DHT22;700;51.906;8.404;2023-09-12T19:03:04;24.50;99.90
1411;DHT22;700;51.906;8.404;2023-09-12T19:08:06;24.50;99.90
1411;DHT22;700;51.906;8.404;2023-09-12T19:13:08;24.60;99.90
1411;DHT22;700;51.906;8.404;2023-09-12T19:18:09;24.60;99.90
1411;DHT22;700;51.906;8.404;2023-09-12T19:23:10;24.50;99.90
1411;DHT22;700;51.906;8.404;2023-09-12T19:28:10;24.30;99.90
1411;DHT22;700;51.906;8.404;2023-09-12T19:33:14;24.40;99.90
1411;DHT22;700;51.906;8.404;2023-09-12T19:38:14;24.40;99.90
1411;DHT22;700;51.906;8.404;2023-09-12T19:43:15;24.40;99.90
1411;DHT22;700;51.906;8.404;2023-09-12T19:48:15;24.30;99.90
1411;DHT22;700;51.906;8.404;2023-09-12T19:53:16;24.40;99.90
1411;DHT22;700;51.906;8.404;2023-09-12T19:58:17;24.40;99.90
1411;DHT22;700;51.906;8.404;2023-09-12T20:03:20;24.40;99.90
1411;DHT22;700;51.906;8.404;2023-09-12T20:08:23;24.40;99.90
1411;DHT22;700;51.906;8.404;2023-09-12T20:13:26;24.40;99.90
1411;DHT22;700;51.906;8.404;2023-09-12T20:18:29;24.30;99.90
1411;DHT22;700;51.906;8.404;2023-09-12T20:23:30;24.40;99.90
1411;DHT22;700;51.906;8.404;2023-09-12T20:28:33;24.50;99.90
1411;DHT22;700;51.906;8.404;2023-09-12T20:33:34;24.10;99.90
1411;DHT22;700;51.906;8.404;2023-09-12T20:38:35;24.10;99.90
1411;DHT22;700;51.906;8.404;2023-09-12T20:43:35;24.20;99.90
1411;DHT22;700;51.906;8.404;2023-09-12T20:48:36;24.20;99.90
1411;DHT22;700;51.906;8.404;2023-09-12T20:53:43;24.00;99.90
1411;DHT22;700;51.906;8.404;2023-09-12T20:58:48;24.00;99.90
1411;DHT22;700;51.906;8.404;2023-09-12T21:03:50;23.80;99.90
1411;DHT22;700;51.906;8.404;2023-09-12T21:08:52;23.60;99.90
1411;DHT22;700;51.906;8.404;2023-09-12T21:13:53;23.70;99.90
1411;DHT22;700;51.906;8.404;2023-09-12T21:18:56;23.50;99.90
1411;DHT22;700;51.906;8.404;2023-09-12T21:23:56;23.60;99.90
1411;DHT22;700;51.906;8.404;2023-09-12T21:28:57;23.50;99.90
1411;DHT22;700;51.906;8.404;2023-09-12T21:34:00;23.30;99.90
1411;DHT22;700;51.906;8.404;2023-09-12T21:39:01;22.70;99.90
1411;DHT22;700;51.906;8.404;2023-09-12T21:44:06;22.10;99.90
1411;DHT22;700;51.906;8.404;2023-09-12T21:49:09;21.30;99.90
1411;DHT22;700;51.906;8.404;2023-09-12T21:54:12;20.90;99.90
1411;DHT22;700;51.906;8.404;2023-09-12T21:59:15;20.90;99.90
1411;DHT22;700;51.906;8.404;2023-09-12T22:04:15;21.00;99.90
1411;DHT22;700;51.906;8.404;2023-09-12T22:09:16;21.00;99.90
1411;DHT22;700;51.906;8.404;2023-09-12T22:14:19;21.00;99.90
1411;DHT22;700;51.906;8.404;2023-09-12T22:19:19;21.00;99.90
1411;DHT22;700;51.906;8.404;2023-09-12T22:24:20;20.90;99.90
1411;DHT22;700;51.906;8.404;2023-09-12T22:29:23;20.90;99.90
1411;DHT22;700;51.906;8.404;2023-09-12T22:34:23;21.00;99.90
1411;DHT22;700;51.906;8.404;2023-09-12T22:39:26;21.00;99.90
1411;DHT22;700;51.906;8.404;2023-09-12T22:44:27;20.90;99.90
1411;DHT22;700;51.906;8.404;2023-09-12T22:49:27;20.80;99.90
1411;DHT22;700;51.906;8.404;2023-09-12T22:54:28;20.80;99.90
1411;DHT22;700;51.906;8.404;2023-09-12T22:59:28;20.90;99.90
1411;DHT22;700;51.906;8.404;2023-09-12T23:04:29;21.10;99.90
1411;DHT22;700;51.906;8.404;2023-09-12T23:09:30;21.20;99.90
1411;DHT22;700;51.906;8.404;2023-09-12T23:14:30;21.30;99.90
1411;DHT22;700;51.906;8.404;2023-09-12T23:19:33;21.30;99.90
1411;DHT22;700;51.906;8.404;2023-09-12T23:24:36;21.30;99.90
1411;DHT22;700;51.906;8.404;2023-09-12T23:29:37;21.30;99.90
1411;DHT22;700;51.906;8.404;2023-09-12T23:34:39;21.30;99.90
1411;DHT22;700;51.906;8.404;2023-09-12T23:39:42;21.30;99.90
1411;DHT22;700;51.906;8.404;2023-09-12T23:44:45;21.50;99.90
1411;DHT22;700;51.906;8.404;2023-09-12T23:49:46;21.50;99.90
1411;DHT22;700;51.906;8.404;2023-09-12T23:54:48;21.30;99.90
1411;DHT22;700;51.906;8.404;2023-09-12T23:59:49;21.50;99.90
